LYBE/BEG METAR and TAF weather

Enter ICAO airport designator
Station Type Date Time Source
LYBE METAR 2019/01/21 22:30 UTC NOAA

LYBE 212230Z 08005KT 7000 OVC027 00/M02 Q1019 NOSIG


Station Type Date Time Source
LYBE Decoded METAR 2019/01/21 22:30 UTC NOAA

Beograd / Surcin, Serbia and Montenegro (LYBE) 44-49N 020-17E 99M
Jan 21, 2019 - 05:30 PM EST / 2019.01.21 2230 UTC
Wind: from the E (080 degrees) at 6 MPH (5 KT):0
Visibility: 4 mile(s):0
Sky conditions: overcast
Temperature: 32 F (0 C)
Windchill: 26 F (-3 C):1
Dew Point: 28 F (-2 C)
Relative Humidity: 86%
Pressure (altimeter): 30.09 in. Hg (1019 hPa)
ob: LYBE 212230Z 08005KT 7000 OVC027 00/M02 Q1019 NOSIG
cycle: 22

Station Type Date Time Source
LYBE TAF 2019/01/21 18:21 UTC NOAA

TAF LYBE 211700Z 2118/2218 06008KT 9999 SCT010 OVC025 TX02/2212Z TNM02/2206Z
TEMPO 2206/2218 12014KT 4000 -SN


Example: see airport list